Decoded Metar for LFMO (ORANGE in FRANCE) (IATA:N/A) | Meteo·Mobile Aviation Weather
aviador You're here:

LFMO Decoded Metar

ORANGE in FRANCE
Report Time2018-09-21 04:00:00
UTC Time2018-09-21 04:21:47
Flight Rules vfr VFR
Wind040° at 02 kt
W.Decomp.*RWY 32: 0.3 kt HW 2.0 kt RCW
W.Rank040° ranks 25
Current wind is below 040° avg. (3.3)
Visibility9999 m
Phenomena:N/A
Clouds:N/A
Expected CloudBase > 800 ft AGL from Temp-Dew spread
CeilingNone
Temp15°C (ISA 0)
Dew Point13°C (88% RH)
QNH1016 hPa
Density Alt322 ft
Elevation180 ft
Report Wrong Elevation
Raw Report
METAR LFMO 210400Z AUTO 04002KT CAVOK 15/13 Q1016 NOSIG=

Extra information for LFMO:More info

Metar Taf Metar & Taf Last 4 Metars F.Rules Stats Wind Profile Meteogram Temp Stats Airport Information Weather charts Add Link Nearby VenuesMetar ALERT Operation Metar Decoded Social comments